createdAt,value
2023-03-12T00:00:48.881Z,98945.25
2023-03-12T00:03:15.637Z,98945.47
2023-03-12T00:05:44.028Z,98940.97
2023-03-12T00:08:11.745Z,98947.78
2023-03-12T00:10:40.307Z,98947.66
2023-03-12T00:13:07.960Z,98952.34
2023-03-12T00:15:39.410Z,98949.53
2023-03-12T00:18:06.158Z,98959.06
2023-03-12T00:20:33.053Z,98956.56
2023-03-12T00:22:59.827Z,98945.06
2023-03-12T00:25:26.343Z,98954.75
2023-03-12T00:27:52.880Z,98961.69
2023-03-12T00:30:19.474Z,98964.88
2023-03-12T00:32:46.105Z,98958.19
2023-03-12T00:35:12.710Z,98967.00
2023-03-12T00:37:39.559Z,98962.78
2023-03-12T00:40:09.170Z,98959.19
2023-03-12T00:42:35.759Z,98960.81
2023-03-12T00:45:02.293Z,98962.97
2023-03-12T00:47:28.804Z,98966.41
2023-03-12T00:49:55.343Z,98969.19
2023-03-12T00:52:21.866Z,98974.22
2023-03-12T00:54:48.413Z,98973.63
2023-03-12T00:57:14.943Z,98973.41
2023-03-12T00:59:42.273Z,98976.19
2023-03-12T01:02:09.317Z,98976.09
2023-03-12T01:04:35.981Z,98975.88
2023-03-12T01:07:02.498Z,98975.38
2023-03-12T01:09:29.036Z,98979.81
2023-03-12T01:11:55.610Z,98978.41
2023-03-12T01:14:22.310Z,98980.41
2023-03-12T01:16:50.872Z,98984.44
2023-03-12T01:19:19.124Z,98984.22
2023-03-12T01:21:45.699Z,98980.78
2023-03-12T01:24:12.277Z,98984.72
2023-03-12T01:26:38.770Z,98990.41
2023-03-12T01:29:05.400Z,98980.28
2023-03-12T01:31:31.981Z,98988.50
2023-03-12T01:33:58.581Z,98989.97
2023-03-12T01:36:28.483Z,98991.47
2023-03-12T01:38:57.599Z,98988.53
2023-03-12T01:41:26.492Z,98986.50
2023-03-12T01:43:53.012Z,98986.91
2023-03-12T01:46:39.752Z,98989.75
2023-03-12T01:49:09.104Z,98995.91
2023-03-12T01:51:41.849Z,98999.25
2023-03-12T01:54:20.439Z,99011.97
2023-03-12T01:56:47.756Z,99019.06
2023-03-12T01:59:20.648Z,99028.59
2023-03-12T02:01:48.664Z,99038.66
2023-03-12T02:04:18.127Z,99031.31
2023-03-12T02:07:05.561Z,99032.91
2023-03-12T02:09:41.022Z,99030.81
2023-03-12T02:12:08.400Z,99026.09
2023-03-12T02:14:35.097Z,99025.81
2023-03-12T02:17:01.793Z,99015.09
2023-03-12T02:19:41.532Z,99009.97
2023-03-12T02:22:09.974Z,99002.25
2023-03-12T02:24:52.489Z,99009.47
2023-03-12T02:27:21.496Z,99010.66
2023-03-12T02:29:48.677Z,99009.44
2023-03-12T02:32:24.532Z,99014.53
2023-03-12T02:34:51.502Z,99026.03
2023-03-12T02:37:19.304Z,99016.13
2023-03-12T02:39:54.920Z,99023.19
2023-03-12T02:42:24.062Z,99023.91
2023-03-12T02:44:50.845Z,99021.78
2023-03-12T02:47:17.404Z,99031.84
2023-03-12T02:49:43.931Z,99033.00
2023-03-12T02:52:10.876Z,99037.59
2023-03-12T02:54:37.478Z,99037.91
2023-03-12T02:57:04.181Z,99045.50
2023-03-12T02:59:31.142Z,99051.00
2023-03-12T03:01:59.998Z,99049.47
2023-03-12T03:04:28.096Z,99056.56
2023-03-12T03:06:54.820Z,99059.03
2023-03-12T03:09:22.503Z,99064.94
2023-03-12T03:11:50.855Z,99067.88
2023-03-12T03:14:18.580Z,99067.38
2023-03-12T03:16:45.636Z,99068.94
2023-03-12T03:19:12.543Z,99068.59
2023-03-12T03:21:39.155Z,99078.59
2023-03-12T03:24:06.180Z,99076.19
2023-03-12T03:26:32.847Z,99069.41
2023-03-12T03:28:59.450Z,99065.75
2023-03-12T03:31:26.150Z,99070.72
2023-03-12T03:33:52.838Z,99090.50
2023-03-12T03:36:19.907Z,99084.72
2023-03-12T03:38:49.446Z,99084.66
2023-03-12T03:41:17.722Z,99082.53
2023-03-12T03:43:44.372Z,99089.31
2023-03-12T03:46:13.170Z,99087.88
2023-03-12T03:48:40.215Z,99094.16
2023-03-12T03:51:10.442Z,99091.59
2023-03-12T03:53:37.194Z,99087.59
2023-03-12T03:56:09.196Z,99090.88
2023-03-12T03:58:35.768Z,99094.44
2023-03-12T04:01:02.584Z,99087.03
2023-03-12T04:03:29.409Z,99092.41
2023-03-12T04:06:00.836Z,99086.19
2023-03-12T04:08:28.750Z,99088.31
2023-03-12T04:10:55.705Z,99090.41
2023-03-12T04:13:22.274Z,99087.94
2023-03-12T04:15:50.846Z,99090.25
2023-03-12T04:18:18.187Z,99091.88
2023-03-12T04:20:45.025Z,99098.97
2023-03-12T04:23:11.793Z,99096.09
2023-03-12T04:25:38.748Z,99100.97
2023-03-12T04:28:06.149Z,99088.41
2023-03-12T04:30:33.119Z,99098.84
2023-03-12T04:32:59.705Z,99095.47
2023-03-12T04:35:26.329Z,99108.41
2023-03-12T04:37:52.860Z,99105.06
2023-03-12T04:40:20.009Z,99127.13
2023-03-12T04:42:46.861Z,99126.41
2023-03-12T04:45:13.502Z,99130.13
2023-03-12T04:47:40.118Z,99124.63
2023-03-12T04:50:07.187Z,99121.94
2023-03-12T04:52:33.789Z,99139.69
2023-03-12T04:55:00.574Z,99145.78
2023-03-12T04:57:27.518Z,99138.00
2023-03-12T04:59:54.227Z,99137.34
2023-03-12T05:02:20.850Z,99147.66
2023-03-12T05:04:47.466Z,99155.13
2023-03-12T05:07:14.019Z,99156.06
2023-03-12T05:09:40.621Z,99157.38
2023-03-12T05:12:07.524Z,99156.00
2023-03-12T05:14:34.087Z,99160.78
2023-03-12T05:17:00.642Z,99158.41
2023-03-12T05:19:27.247Z,99161.53
2023-03-12T05:21:53.812Z,99158.97
2023-03-12T05:24:22.062Z,99165.47
2023-03-12T05:26:48.603Z,99171.44
2023-03-12T05:29:15.205Z,99159.53
2023-03-12T05:31:41.782Z,99173.25
2023-03-12T05:34:08.490Z,99173.97
2023-03-12T05:36:35.078Z,99178.00
2023-03-12T05:39:01.633Z,99170.38
2023-03-12T05:41:29.408Z,99173.22
2023-03-12T05:43:57.240Z,99179.47
2023-03-12T05:46:25.734Z,99177.66
2023-03-12T05:48:53.178Z,99176.88
2023-03-12T05:51:20.168Z,99184.50
2023-03-12T05:53:47.189Z,99186.13
2023-03-12T05:56:17.102Z,99185.44
2023-03-12T05:58:44.308Z,99191.16
2023-03-12T06:01:18.704Z,99195.75
2023-03-12T06:03:46.104Z,99210.19
2023-03-12T06:06:13.384Z,99207.25
2023-03-12T06:08:40.802Z,99209.75
2023-03-12T06:11:07.585Z,99213.44
2023-03-12T06:13:34.336Z,99226.31
2023-03-12T06:16:11.171Z,99228.91
2023-03-12T06:18:38.091Z,99218.16
2023-03-12T06:21:12.237Z,99219.09
2023-03-12T06:23:39.558Z,99226.97
2023-03-12T06:26:06.424Z,99230.22
2023-03-12T06:28:33.495Z,99233.47
2023-03-12T06:31:00.094Z,99229.69
2023-03-12T06:33:26.940Z,99229.63
2023-03-12T06:35:58.571Z,99232.22
2023-03-12T06:38:26.044Z,99233.50
2023-03-12T06:40:58.373Z,99233.53
2023-03-12T06:43:26.302Z,99234.25
2023-03-12T06:45:55.751Z,99246.75
2023-03-12T06:48:23.580Z,99243.44
2023-03-12T06:50:51.516Z,99244.41
2023-03-12T06:53:18.973Z,99236.72
2023-03-12T06:55:46.670Z,99247.84
2023-03-12T06:58:13.448Z,99250.59
2023-03-12T07:00:40.037Z,99249.94
2023-03-12T07:03:07.054Z,99257.00
2023-03-12T07:05:33.682Z,99253.66
2023-03-12T07:08:00.218Z,99251.88
2023-03-12T07:10:29.513Z,99261.16
2023-03-12T07:12:57.129Z,99266.63
2023-03-12T07:15:24.257Z,99270.63
2023-03-12T07:17:50.941Z,99272.53
2023-03-12T07:20:17.787Z,99275.09
2023-03-12T07:22:44.936Z,99276.56
2023-03-12T07:25:12.045Z,99279.09
2023-03-12T07:27:38.678Z,99282.16
2023-03-12T07:30:05.890Z,99273.97
2023-03-12T07:32:33.692Z,99278.94
2023-03-12T07:35:00.588Z,99276.25
2023-03-12T07:37:27.224Z,99276.88
2023-03-12T07:39:54.837Z,99276.53
2023-03-12T07:42:22.059Z,99283.25
2023-03-12T07:44:48.687Z,99273.09
2023-03-12T07:47:23.673Z,99290.38
2023-03-12T07:49:51.687Z,99287.19
2023-03-12T07:52:20.293Z,99295.19
2023-03-12T07:54:47.852Z,99283.47
2023-03-12T07:57:14.988Z,99292.22
2023-03-12T07:59:41.656Z,99288.88
2023-03-12T08:02:10.640Z,99286.00
2023-03-12T08:04:37.484Z,99279.16
2023-03-12T08:07:06.330Z,99289.38
2023-03-12T08:09:35.077Z,99288.25
2023-03-12T08:12:01.752Z,99293.63
2023-03-12T08:14:31.750Z,99307.50
2023-03-12T08:16:59.037Z,99307.91
2023-03-12T08:19:26.874Z,99298.94
2023-03-12T08:21:54.400Z,99300.84
2023-03-12T08:24:22.264Z,99304.00
2023-03-12T08:26:48.978Z,99304.41
2023-03-12T08:29:16.407Z,99304.75
2023-03-12T08:31:57.454Z,99305.94
2023-03-12T08:34:28.301Z,99299.22
2023-03-12T08:36:54.853Z,99301.66
2023-03-12T08:39:21.370Z,99304.34
2023-03-12T08:41:47.942Z,99297.63
2023-03-12T08:44:14.560Z,99312.41
2023-03-12T08:46:41.106Z,99299.06
2023-03-12T08:49:07.681Z,99300.31
2023-03-12T08:51:34.236Z,99311.59
2023-03-12T08:54:00.786Z,99306.59
2023-03-12T08:56:27.364Z,99306.41
2023-03-12T08:58:53.970Z,99303.94
2023-03-12T09:01:20.578Z,99313.94
2023-03-12T09:03:49.592Z,99309.97
2023-03-12T09:06:17.044Z,99308.81
2023-03-12T09:08:44.439Z,99314.31
2023-03-12T09:11:12.661Z,99306.28
2023-03-12T09:14:02.520Z,99301.41
2023-03-12T09:16:27.043Z,99313.75
2023-03-12T09:18:54.106Z,99310.63
2023-03-12T09:21:21.069Z,99307.19
2023-03-12T09:23:47.887Z,99315.25
2023-03-12T09:26:14.676Z,99316.13
2023-03-12T09:28:42.575Z,99313.69
2023-03-12T09:31:09.156Z,99319.41
2023-03-12T09:33:36.027Z,99321.66
2023-03-12T09:36:03.314Z,99324.47
2023-03-12T09:38:31.981Z,99313.13
2023-03-12T09:40:59.176Z,99314.41
2023-03-12T09:43:32.377Z,99306.97
2023-03-12T09:46:00.330Z,99311.50
2023-03-12T09:48:35.658Z,99306.69
2023-03-12T09:51:23.963Z,99300.69
2023-03-12T09:53:57.604Z,99296.97
2023-03-12T09:56:24.071Z,99303.66
2023-03-12T09:58:54.609Z,99305.09
2023-03-12T10:01:47.911Z,99298.06
2023-03-12T10:04:26.746Z,99294.78
2023-03-12T10:07:24.403Z,99299.56
2023-03-12T10:10:29.287Z,99297.69
2023-03-12T10:13:24.271Z,99292.47
2023-03-12T10:16:27.670Z,99296.97
2023-03-12T10:18:58.373Z,99286.25
2023-03-12T10:21:39.549Z,99288.22
2023-03-12T10:24:20.483Z,99289.09
2023-03-12T10:26:51.031Z,99289.00
2023-03-12T10:29:22.745Z,99276.50
2023-03-12T10:32:02.235Z,99284.53
2023-03-12T10:34:40.352Z,99282.56
2023-03-12T10:37:18.843Z,99284.00
2023-03-12T10:39:45.998Z,99287.16
2023-03-12T10:42:21.302Z,99284.16
2023-03-12T10:44:59.145Z,99284.50
2023-03-12T10:47:30.400Z,99285.91
2023-03-12T10:50:13.177Z,99276.94
2023-03-12T10:52:40.029Z,99275.41
2023-03-12T10:55:30.139Z,99275.81
2023-03-12T10:57:57.532Z,99278.50
2023-03-12T11:00:25.667Z,99270.28
2023-03-12T11:02:58.806Z,99265.50
2023-03-12T11:05:35.149Z,99264.53
2023-03-12T11:08:04.603Z,99264.00
2023-03-12T11:10:46.687Z,99268.97
2023-03-12T11:13:24.309Z,99257.53
2023-03-12T11:15:52.860Z,99253.34
2023-03-12T11:18:33.868Z,99254.53
2023-03-12T11:21:09.323Z,99243.88
2023-03-12T11:23:39.437Z,99242.25
2023-03-12T11:26:15.134Z,99235.59
2023-03-12T11:28:44.891Z,99230.81
2023-03-12T11:31:20.731Z,99231.56
2023-03-12T11:33:47.659Z,99217.97
2023-03-12T11:36:23.200Z,99215.78
2023-03-12T11:39:20.739Z,99211.22
2023-03-12T11:42:10.888Z,99212.56
2023-03-12T11:45:04.435Z,99206.19
2023-03-12T11:47:43.752Z,99203.94
2023-03-12T11:50:25.372Z,99201.09
2023-03-12T11:53:27.938Z,99197.00
2023-03-12T11:55:55.485Z,99195.03
2023-03-12T11:58:39.894Z,99192.94
2023-03-12T12:01:06.400Z,99188.22
2023-03-12T12:04:03.980Z,99185.19
2023-03-12T12:06:51.083Z,99186.66
2023-03-12T12:09:23.622Z,99185.34
2023-03-12T12:12:17.205Z,99184.56
2023-03-12T12:14:49.771Z,99178.34
2023-03-12T12:17:30.482Z,99175.50
2023-03-12T12:20:14.868Z,99179.25
2023-03-12T12:23:18.222Z,99182.25
2023-03-12T12:26:03.011Z,99181.50
2023-03-12T12:29:01.418Z,99184.47
2023-03-12T12:31:52.589Z,99175.00
2023-03-12T12:34:36.030Z,99172.16
2023-03-12T12:37:14.756Z,99175.66
2023-03-12T12:39:47.763Z,99173.91
2023-03-12T12:42:23.272Z,99175.06
2023-03-12T12:44:53.627Z,99164.59
2023-03-12T12:47:30.463Z,99170.78
2023-03-12T12:49:59.942Z,99177.66
2023-03-12T12:52:27.312Z,99166.81
2023-03-12T12:55:24.470Z,99158.50
2023-03-12T12:57:56.812Z,99153.78
2023-03-12T13:00:41.864Z,99160.38
2023-03-12T13:03:17.726Z,99161.09
2023-03-12T13:06:05.106Z,99160.19
2023-03-12T13:08:42.273Z,99155.00
2023-03-12T13:11:19.346Z,99156.63
2023-03-12T13:13:51.566Z,99149.28
2023-03-12T13:16:18.120Z,99161.28
2023-03-12T13:18:59.928Z,99144.81
2023-03-12T13:21:31.300Z,99139.66
2023-03-12T13:24:22.303Z,99157.94
2023-03-12T13:27:19.445Z,99163.13
2023-03-12T13:29:46.391Z,99153.50
2023-03-12T13:32:34.535Z,99151.38
2023-03-12T13:35:29.371Z,99161.91
2023-03-12T13:37:56.102Z,99154.06
2023-03-12T13:40:31.590Z,99161.72
2023-03-12T13:43:49.710Z,99149.81
2023-03-12T13:46:16.287Z,99157.34
2023-03-12T13:48:47.687Z,99153.59
2023-03-12T13:51:20.720Z,99155.47
2023-03-12T13:54:02.834Z,99163.38
2023-03-12T13:56:33.798Z,99167.44
2023-03-12T13:59:07.242Z,99164.41
2023-03-12T14:01:42.998Z,99159.63
2023-03-12T14:04:22.462Z,99160.44
2023-03-12T14:07:04.183Z,99156.41
2023-03-12T14:09:48.694Z,99164.44
2023-03-12T14:12:46.602Z,99163.91
2023-03-12T14:15:40.117Z,99159.03
2023-03-12T14:18:25.726Z,99164.88
2023-03-12T14:20:59.405Z,99165.91
2023-03-12T14:23:30.387Z,99168.84
2023-03-12T14:26:04.040Z,99163.50
2023-03-12T14:28:37.991Z,99157.09
2023-03-12T14:31:14.826Z,99163.19
2023-03-12T14:33:53.565Z,99169.59
2023-03-12T14:36:23.991Z,99166.06
2023-03-12T14:39:08.682Z,99170.53
2023-03-12T14:41:42.378Z,99171.38
2023-03-12T14:44:25.917Z,99166.78
2023-03-12T14:47:13.000Z,99164.97
2023-03-12T14:49:42.307Z,99164.38
2023-03-12T14:52:12.433Z,99162.59
2023-03-12T14:54:41.766Z,99168.09
2023-03-12T14:57:18.955Z,99159.72
2023-03-12T14:59:53.726Z,99161.47
2023-03-12T15:02:21.120Z,99158.28
2023-03-12T15:04:49.810Z,99157.34
2023-03-12T15:07:22.025Z,99148.63
2023-03-12T15:09:51.782Z,99157.03
2023-03-12T15:12:34.189Z,99161.31
2023-03-12T15:15:09.596Z,99158.88
2023-03-12T15:17:37.176Z,99156.91
2023-03-12T15:20:09.377Z,99158.28
2023-03-12T15:22:37.372Z,99157.34
2023-03-12T15:25:22.004Z,99157.19
2023-03-12T15:27:48.970Z,99141.66
2023-03-12T15:30:24.971Z,99140.28
2023-03-12T15:33:08.387Z,99136.81
2023-03-12T15:35:37.917Z,99132.91
2023-03-12T15:38:05.110Z,99131.75
2023-03-12T15:40:32.530Z,99128.25
2023-03-12T15:43:01.950Z,99126.06
2023-03-12T15:45:28.539Z,99128.94
2023-03-12T15:47:55.771Z,99128.09
2023-03-12T15:50:30.189Z,99124.63
2023-03-12T15:53:25.757Z,99127.72
2023-03-12T15:56:02.021Z,99117.09
2023-03-12T15:58:32.225Z,99125.34
2023-03-12T16:01:18.086Z,99125.97
2023-03-12T16:03:45.826Z,99128.78
2023-03-12T16:06:18.349Z,99127.03
2023-03-12T16:08:47.043Z,99126.31
2023-03-12T16:11:20.538Z,99115.97
2023-03-12T16:13:51.199Z,99113.41
2023-03-12T16:16:18.146Z,99106.16
2023-03-12T16:18:44.988Z,99113.97
2023-03-12T16:21:11.958Z,99120.97
2023-03-12T16:23:38.647Z,99113.72
2023-03-12T16:26:05.951Z,99115.41
2023-03-12T16:28:35.143Z,99127.09
2023-03-12T16:31:02.210Z,99128.94
2023-03-12T16:33:28.811Z,99122.56
2023-03-12T16:35:57.069Z,99124.50
2023-03-12T16:38:23.815Z,99127.97
2023-03-12T16:40:52.030Z,99127.47
2023-03-12T16:43:24.057Z,99122.56
2023-03-12T16:45:52.232Z,99125.69
2023-03-12T16:48:21.431Z,99126.63
2023-03-12T16:50:56.941Z,99141.03
2023-03-12T16:53:24.142Z,99143.59
2023-03-12T16:55:56.461Z,99137.22
2023-03-12T16:58:25.349Z,99147.41
2023-03-12T17:00:53.861Z,99144.47
2023-03-12T17:03:35.771Z,99147.53
2023-03-12T17:06:03.456Z,99155.34
2023-03-12T17:08:30.043Z,99151.00
2023-03-12T17:10:57.623Z,99150.22
2023-03-12T17:13:26.917Z,99152.16
2023-03-12T17:15:53.972Z,99153.25
2023-03-12T17:18:20.830Z,99145.09
2023-03-12T17:20:50.926Z,99151.75
2023-03-12T17:23:18.259Z,99149.88
2023-03-12T17:25:44.970Z,99160.56
2023-03-12T17:28:13.643Z,99165.66
2023-03-12T17:30:40.250Z,99165.13
2023-03-12T17:33:10.866Z,99172.09
2023-03-12T17:35:37.820Z,99167.78
2023-03-12T17:38:04.483Z,99169.09
2023-03-12T17:40:31.212Z,99176.06
2023-03-12T17:42:58.053Z,99184.47
2023-03-12T17:45:24.912Z,99182.53
2023-03-12T17:47:51.587Z,99189.09
2023-03-12T17:50:18.495Z,99188.66
2023-03-12T17:52:45.329Z,99190.22
2023-03-12T17:55:12.257Z,99186.34
2023-03-12T17:57:39.280Z,99184.34
2023-03-12T18:00:12.765Z,99181.88
2023-03-12T18:02:40.346Z,99183.97
2023-03-12T18:05:09.092Z,99180.56
2023-03-12T18:07:36.219Z,99185.16
2023-03-12T18:10:03.131Z,99178.63
2023-03-12T18:12:29.710Z,99176.19
2023-03-12T18:14:56.322Z,99180.50
2023-03-12T18:17:23.022Z,99173.78
2023-03-12T18:19:49.600Z,99167.91
2023-03-12T18:22:16.366Z,99168.97
2023-03-12T18:24:42.943Z,99181.97
2023-03-12T18:27:09.503Z,99172.84
2023-03-12T18:29:36.921Z,99176.19
2023-03-12T18:32:04.192Z,99184.97
2023-03-12T18:34:30.730Z,99183.69
2023-03-12T18:36:57.318Z,99173.03
2023-03-12T18:39:24.028Z,99174.69
2023-03-12T18:41:50.596Z,99190.44
2023-03-12T18:44:17.149Z,99184.97
2023-03-12T18:46:43.826Z,99173.22
2023-03-12T18:49:12.467Z,99174.69
2023-03-12T18:51:39.370Z,99173.34
2023-03-12T18:54:06.063Z,99179.06
2023-03-12T18:56:32.859Z,99179.78
2023-03-12T18:58:59.420Z,99188.94
2023-03-12T19:01:26.492Z,99193.03
2023-03-12T19:03:53.367Z,99186.31
2023-03-12T19:06:19.956Z,99186.66
2023-03-12T19:08:46.575Z,99189.97
2023-03-12T19:11:15.665Z,99192.25
2023-03-12T19:13:42.910Z,99188.94
2023-03-12T19:16:11.514Z,99198.31
2023-03-12T19:18:39.373Z,99189.66
2023-03-12T19:21:09.353Z,99197.06
2023-03-12T19:23:36.619Z,99198.13
2023-03-12T19:26:04.227Z,99195.69
2023-03-12T19:28:31.295Z,99195.59
2023-03-12T19:31:03.632Z,99197.66
2023-03-12T19:33:30.687Z,99193.41
2023-03-12T19:35:57.905Z,99192.25
2023-03-12T19:38:25.145Z,99196.84
2023-03-12T19:40:55.270Z,99194.66
2023-03-12T19:43:22.676Z,99196.16
2023-03-12T19:45:49.473Z,99206.66
2023-03-12T19:48:16.187Z,99207.00
2023-03-12T19:50:45.074Z,99202.88
2023-03-12T19:53:12.573Z,99198.34
2023-03-12T19:55:39.301Z,99201.53
2023-03-12T19:58:05.987Z,99199.91
2023-03-12T20:00:32.562Z,99198.34
2023-03-12T20:02:59.762Z,99199.25
2023-03-12T20:05:26.418Z,99199.69
2023-03-12T20:07:53.101Z,99199.47
2023-03-12T20:10:19.783Z,99203.13
2023-03-12T20:12:46.908Z,99200.84
2023-03-12T20:15:13.538Z,99208.00
2023-03-12T20:17:40.316Z,99213.59
2023-03-12T20:20:08.792Z,99210.97
2023-03-12T20:22:38.039Z,99220.44
2023-03-12T20:25:06.265Z,99220.88
2023-03-12T20:27:34.282Z,99221.34
2023-03-12T20:30:01.028Z,99218.38
2023-03-12T20:32:28.773Z,99205.44
2023-03-12T20:34:55.456Z,99203.44
2023-03-12T20:37:22.066Z,99205.25
2023-03-12T20:39:48.634Z,99204.44
2023-03-12T20:42:15.249Z,99209.16
2023-03-12T20:44:41.876Z,99199.91
2023-03-12T20:47:08.466Z,99216.00
2023-03-12T20:49:35.159Z,99206.72
2023-03-12T20:52:01.993Z,99207.41
2023-03-12T20:54:28.586Z,99203.34
2023-03-12T20:56:55.223Z,99201.84
2023-03-12T20:59:21.786Z,99195.81
2023-03-12T21:01:48.335Z,99204.59
2023-03-12T21:04:15.125Z,99198.44
2023-03-12T21:06:41.711Z,99196.53
2023-03-12T21:09:08.392Z,99199.59
2023-03-12T21:11:35.160Z,99198.91
2023-03-12T21:14:01.802Z,99207.00
2023-03-12T21:16:28.432Z,99204.69
2023-03-12T21:18:58.771Z,99201.50
2023-03-12T21:21:25.661Z,99208.69
2023-03-12T21:23:52.350Z,99211.91
2023-03-12T21:26:19.091Z,99217.25
2023-03-12T21:28:46.036Z,99217.25
2023-03-12T21:31:16.095Z,99217.38
2023-03-12T21:33:42.928Z,99222.72
2023-03-12T21:36:12.373Z,99226.84
2023-03-12T21:38:39.843Z,99234.13
2023-03-12T21:41:07.377Z,99224.13
2023-03-12T21:43:34.192Z,99227.41
2023-03-12T21:46:09.250Z,99227.53
2023-03-12T21:48:36.492Z,99217.50
2023-03-12T21:51:09.357Z,99222.50
2023-03-12T21:53:36.541Z,99224.34
2023-03-12T21:56:05.376Z,99218.28
2023-03-12T21:58:32.848Z,99219.09
2023-03-12T22:01:04.070Z,99208.28
2023-03-12T22:03:30.743Z,99211.34
2023-03-12T22:05:57.268Z,99219.09
2023-03-12T22:08:23.837Z,99231.41
2023-03-12T22:10:50.445Z,99225.69
2023-03-12T22:13:17.128Z,99229.59
2023-03-12T22:15:47.330Z,99231.59
2023-03-12T22:18:13.915Z,99221.81
2023-03-12T22:20:40.462Z,99232.41
2023-03-12T22:23:06.997Z,99242.47
2023-03-12T22:25:34.698Z,99255.03
2023-03-12T22:28:01.259Z,99249.88
2023-03-12T22:30:28.721Z,99241.00
2023-03-12T22:32:55.324Z,99248.97
2023-03-12T22:35:25.815Z,99245.44
2023-03-12T22:37:53.067Z,99255.63
2023-03-12T22:40:20.185Z,99253.31
2023-03-12T22:42:50.522Z,99269.31
2023-03-12T22:45:17.588Z,99262.22
2023-03-12T22:47:44.785Z,99275.47
2023-03-12T22:50:12.675Z,99284.47
2023-03-12T22:52:39.585Z,99282.50
2023-03-12T22:55:06.614Z,99275.00
2023-03-12T22:57:34.637Z,99283.00
2023-03-12T23:00:01.195Z,99272.72
2023-03-12T23:02:27.799Z,99266.78
2023-03-12T23:04:54.430Z,99262.66
2023-03-12T23:07:21.055Z,99268.63
2023-03-12T23:09:47.650Z,99260.97
2023-03-12T23:12:14.234Z,99265.31
2023-03-12T23:14:40.802Z,99259.25
2023-03-12T23:17:08.948Z,99258.91
2023-03-12T23:19:36.368Z,99263.59
2023-03-12T23:22:03.044Z,99265.53
2023-03-12T23:24:31.032Z,99273.16
2023-03-12T23:26:57.723Z,99269.84
2023-03-12T23:29:24.304Z,99263.59
2023-03-12T23:31:50.889Z,99252.41
2023-03-12T23:34:17.686Z,99260.50
2023-03-12T23:36:46.073Z,99267.69
2023-03-12T23:39:13.375Z,99267.78
2023-03-12T23:41:40.151Z,99276.09
2023-03-12T23:44:06.787Z,99277.38
2023-03-12T23:46:34.015Z,99273.94
2023-03-12T23:49:00.831Z,99290.03
2023-03-12T23:51:30.332Z,99279.41
2023-03-12T23:54:02.487Z,99276.78
2023-03-12T23:56:33.362Z,99267.69
2023-03-12T23:58:59.917Z,99269.97
